Accueil
METAR-TAF:

METAR-TAF

Aéroports :

Capri, Italie

latitude: 40-33N, longitude: 014-12E, altitude: 160 m

Observation

Le bulletin a été fait il y a 1 heure et 58 minutes, à 17:55 UTC
Vent 2 kt de ouest
Température 13°C
Humidité 82%
Pression 1014 hPa
Visibilité 10 km ou plus
Quelques nuages à une hauteur de 2000 ft, Cumulus congestus.
Nuages épars à une hauteur de 3000 ft

METAR: LIQC 311755Z 28002KT 9999 FEW020TCU SCT030 13/10 Q1014 RMK BKN QUK 2 QUL 2 W VIS MAR 10 KM VIS MIN 9999

Heure: 21:53 (19:53 UTC)


TAF: absent

Observations et prévisions météorologiques de plus de 4000 aéroports (messages METAR et TAF).

Les stations disponibles sont représentées par des disques jaunes et rouges sur la carte.

Passer la souris dessus pour voir le nom de la station.

Cliquer dessus pour voir les observations et prévisions météorologiques.

Pour changer de carte: cliquez sur les boutons verts avec une croix noire pour zoomer, sur le bouton vert avec un tiret pour effectuer un zoom arrière, ou sur les flèches vertes pour les cartes adjacentes.


METAR-TAF: